Time;durP1;ratioP1;P1;durP2;ratioP2;P2;SDS_P1;SDS_P2;PMS_P1;PMS_P2;Temp;Humidity;BMP_temperature;BMP_pressure;BME280_temperature;BME280_humidity;BME280_pressure;Samples;Min_cycle;Max_cycle;Signal;HPM_P1;HPM_P2
2022/10/05 00:02:23;;;;;;;0.60;0.60;;;8.60;99.90;;;;;;4968506;28;20258;-70
2022/10/05 00:04:56;;;;;;;0.50;0.50;;;8.60;99.90;;;;;;4967355;28;20048;-70
2022/10/05 00:07:24;;;;;;;0.60;0.60;;;8.60;99.90;;;;;;4969780;28;20326;-69
2022/10/05 00:09:58;;;;;;;6.97;0.70;;;8.70;99.90;;;;;;4967549;28;20041;-69
2022/10/05 00:12:27;;;;;;;9.55;0.98;;;8.70;99.90;;;;;;4963067;28;20148;-70
2022/10/05 00:14:59;;;;;;;1.10;0.88;;;8.70;99.90;;;;;;4969096;28;20048;-70
2022/10/05 00:17:28;;;;;;;1.65;0.75;;;8.70;99.90;;;;;;4961087;28;20055;-70
2022/10/05 00:19:56;;;;;;;3.17;0.90;;;8.70;99.90;;;;;;4966017;28;20195;-70
2022/10/05 00:22:29;;;;;;;1.33;0.70;;;8.70;99.90;;;;;;4961882;28;20060;-69
2022/10/05 00:24:59;;;;;;;1.52;1.17;;;8.70;99.90;;;;;;4974829;28;20321;-69
2022/10/05 00:27:33;;;;;;;0.88;0.60;;;8.60;99.90;;;;;;4965026;28;20254;-69
2022/10/05 00:30:10;;;;;;;0.95;0.80;;;8.70;99.90;;;;;;4977821;28;20064;-69
2022/10/05 00:32:37;;;;;;;;;;;8.70;99.90;;;;;;4964834;28;20064;-69
2022/10/05 00:35:04;;;;;;;0.88;0.80;;;8.70;99.90;;;;;;4958649;28;20039;-69
2022/10/05 00:37:31;;;;;;;0.47;0.47;;;8.70;99.90;;;;;;4962772;28;20037;-70
2022/10/05 00:39:58;;;;;;;7.72;1.05;;;8.60;99.90;;;;;;4961066;28;20558;-70
2022/10/05 00:42:47;;;;;;;0.60;0.60;;;8.70;99.90;;;;;;4962553;28;20049;-69
2022/10/05 00:45:26;;;;;;;0.52;0.52;;;8.60;99.90;;;;;;4962622;28;20203;-69
2022/10/05 00:48:07;;;;;;;2.00;0.60;;;8.60;99.90;;;;;;4959886;28;20200;-69
2022/10/05 00:51:00;;;;;;;5.38;0.70;;;8.60;99.90;;;;;;4960360;28;20056;-69
2022/10/05 00:54:02;;;;;;;6.60;0.80;;;8.70;99.90;;;;;;4972292;28;20981;-68
2022/10/05 00:56:40;;;;;;;2.35;0.70;;;8.70;99.90;;;;;;4964310;28;20060;-69
2022/10/05 00:59:26;;;;;;;3.17;0.70;;;8.70;99.90;;;;;;4962503;28;20048;-69
2022/10/05 01:02:01;;;;;;;0.82;0.57;;;8.70;99.90;;;;;;4962648;28;20202;-69
2022/10/05 01:04:58;;;;;;;0.80;0.80;;;8.70;99.90;;;;;;4966882;28;20104;-69
2022/10/05 01:07:34;;;;;;;0.70;0.43;;;8.70;99.90;;;;;;4962944;28;20830;-66
2022/10/05 01:10:23;;;;;;;2.65;0.77;;;8.70;99.90;;;;;;4961642;28;20578;-69
2022/10/05 01:13:27;;;;;;;3.80;0.70;;;8.60;99.90;;;;;;4985049;28;20049;-72
2022/10/05 01:16:07;;;;;;;0.82;0.75;;;8.60;99.90;;;;;;4962480;28;20053;-70
2022/10/05 01:18:57;;;;;;;0.60;0.60;;;8.60;99.90;;;;;;4953959;28;20975;-70
2022/10/05 01:21:26;;;;;;;1.40;0.60;;;8.60;99.90;;;;;;4962600;28;20584;-69
2022/10/05 01:24:04;;;;;;;0.95;0.57;;;8.60;99.90;;;;;;4961826;28;20249;-68
2022/10/05 01:27:02;;;;;;;1.83;0.50;;;8.60;99.90;;;;;;4961408;28;20176;-70
2022/10/05 01:29:46;;;;;;;2.10;0.70;;;8.50;99.90;;;;;;4956613;28;20407;-69
2022/10/05 01:32:13;;;;;;;2.78;0.60;;;8.50;99.90;;;;;;4954480;28;20046;-69
2022/10/05 01:34:42;;;;;;;;;;;8.40;99.90;;;;;;4962873;28;20064;-68
2022/10/05 01:37:26;;;;;;;3.80;0.70;;;8.40;99.90;;;;;;4954784;28;20198;-69
2022/10/05 01:40:22;;;;;;;1.05;0.93;;;8.40;99.90;;;;;;4964110;28;20049;-68
2022/10/05 01:43:30;;;;;;;2.22;0.55;;;8.40;99.90;;;;;;4975955;28;20828;-69
2022/10/05 01:46:21;;;;;;;0.60;0.60;;;8.40;99.90;;;;;;4942085;28;20156;-69
2022/10/05 01:49:10;;;;;;;0.63;0.63;;;8.40;99.90;;;;;;4958323;28;20147;-68
2022/10/05 01:51:49;;;;;;;1.02;0.68;;;8.40;99.90;;;;;;4964756;28;20037;-69
2022/10/05 01:54:29;;;;;;;0.95;0.50;;;8.40;99.90;;;;;;4956773;28;20037;-69
2022/10/05 01:57:23;;;;;;;0.52;0.52;;;8.40;99.90;;;;;;4962270;28;20302;-69
2022/10/05 02:00:09;;;;;;;1.70;0.60;;;8.50;99.90;;;;;;4977058;28;20144;-69
2022/10/05 02:03:00;;;;;;;0.80;0.77;;;8.40;99.90;;;;;;4965374;28;20052;-69
2022/10/05 02:05:36;;;;;;;3.33;0.70;;;8.40;99.90;;;;;;4969717;28;20244;-69
2022/10/05 02:08:13;;;;;;;0.73;0.60;;;8.40;99.90;;;;;;4974066;28;20041;-69
2022/10/05 02:11:03;;;;;;;0.98;0.70;;;8.40;99.90;;;;;;4974693;28;20460;-69
2022/10/05 02:13:57;;;;;;;1.25;0.63;;;8.30;99.90;;;;;;4979003;28;20046;-68
2022/10/05 02:16:37;;;;;;;0.85;0.50;;;8.30;99.90;;;;;;4962661;28;20277;-69
2022/10/05 02:19:31;;;;;;;2.33;0.77;;;8.30;99.90;;;;;;4962213;28;20045;-69
2022/10/05 02:22:03;;;;;;;1.30;0.90;;;8.30;99.90;;;;;;4965981;28;20052;-69
2022/10/05 02:24:38;;;;;;;4.45;0.90;;;8.30;99.90;;;;;;4981297;28;20056;-72
2022/10/05 02:27:09;;;;;;;1.55;0.90;;;8.30;99.90;;;;;;4959480;28;20042;-69
2022/10/05 02:29:40;;;;;;;0.80;0.70;;;8.30;99.90;;;;;;4973272;28;20368;-67
2022/10/05 02:32:14;;;;;;;1.52;0.70;;;8.30;99.90;;;;;;4968579;28;20029;-69
2022/10/05 02:34:42;;;;;;;1.20;0.63;;;8.30;99.90;;;;;;4963923;28;20030;-69
2022/10/05 02:37:46;;;;;;;4.55;0.80;;;8.30;99.90;;;;;;4966298;28;20108;-69
2022/10/05 02:40:32;;;;;;;1.10;0.80;;;8.30;99.90;;;;;;4966117;28;20073;-69
2022/10/05 02:43:20;;;;;;;4.93;0.80;;;8.30;99.90;;;;;;4969281;28;20827;-69
2022/10/05 02:45:54;;;;;;;1.15;0.85;;;8.30;99.90;;;;;;4967974;28;20056;-68
2022/10/05 02:48:49;;;;;;;4.15;0.88;;;8.30;99.90;;;;;;4956128;28;20567;-69
2022/10/05 02:51:27;;;;;;;3.15;0.88;;;8.30;99.90;;;;;;4981497;28;20198;-69
2022/10/05 02:54:34;;;;;;;1.35;0.93;;;8.20;99.90;;;;;;4957817;28;20099;-69
2022/10/05 02:57:10;;;;;;;0.52;0.50;;;8.20;99.90;;;;;;4961187;28;20230;-69
2022/10/05 03:00:24;;;;;;;0.60;0.60;;;8.10;99.90;;;;;;4962804;28;20041;-68
2022/10/05 03:03:43;;;;;;;0.98;0.77;;;8.10;99.90;;;;;;4963715;28;20040;-68
2022/10/05 03:06:21;;;;;;;3.15;0.85;;;8.10;99.90;;;;;;4949069;28;20048;-69
2022/10/05 03:09:02;;;;;;;1.10;0.85;;;8.00;99.90;;;;;;4965396;28;20539;-69
2022/10/05 03:11:49;;;;;;;3.60;0.60;;;8.00;99.90;;;;;;4963921;28;20053;-69
2022/10/05 03:14:25;;;;;;;4.43;1.15;;;8.00;99.90;;;;;;4968352;28;20336;-70
2022/10/05 03:16:53;;;;;;;0.85;0.70;;;8.00;99.90;;;;;;4967158;28;20531;-69
2022/10/05 03:19:48;;;;;;;4.15;0.63;;;8.00;99.90;;;;;;4966679;28;20037;-69
2022/10/05 03:22:41;;;;;;;4.30;1.52;;;8.00;99.90;;;;;;4963948;28;20172;-69
2022/10/05 03:25:51;;;;;;;3.45;0.73;;;8.00;99.90;;;;;;4981709;28;20041;-69
2022/10/05 03:28:48;;;;;;;1.10;0.68;;;8.00;99.90;;;;;;4976542;28;20401;-70
2022/10/05 03:31:23;;;;;;;0.57;0.57;;;8.00;99.90;;;;;;4965313;28;20387;-69
2022/10/05 03:34:01;;;;;;;0.93;0.60;;;8.00;99.90;;;;;;4955707;28;20045;-70
2022/10/05 03:36:51;;;;;;;1.55;0.80;;;8.00;99.90;;;;;;4960812;28;20851;-69
2022/10/05 03:39:30;;;;;;;0.50;0.50;;;8.00;99.90;;;;;;4965215;28;20322;-69
2022/10/05 03:42:06;;;;;;;1.90;0.80;;;8.00;99.90;;;;;;4981494;28;20049;-69
2022/10/05 03:44:42;;;;;;;3.70;0.70;;;8.00;99.90;;;;;;4980007;28;20218;-69
2022/10/05 03:47:42;;;;;;;1.20;0.63;;;8.00;99.90;;;;;;4967242;28;20045;-69
2022/10/05 03:50:35;;;;;;;2.65;0.77;;;7.90;99.90;;;;;;4966023;28;20052;-69
2022/10/05 03:53:28;;;;;;;1.02;0.80;;;7.90;99.90;;;;;;4964261;28;20110;-69
2022/10/05 03:56:17;;;;;;;1.20;0.80;;;7.90;99.90;;;;;;4958031;28;20057;-69
2022/10/05 03:59:14;;;;;;;1.42;0.70;;;7.90;99.90;;;;;;4964246;28;20042;-69
2022/10/05 04:01:53;;;;;;;1.77;0.90;;;7.90;99.90;;;;;;4956377;28;20046;-68
2022/10/05 04:04:33;;;;;;;3.72;1.10;;;7.90;99.90;;;;;;4947813;28;20194;-69
2022/10/05 04:07:01;;;;;;;8.98;0.90;;;7.80;99.90;;;;;;4958569;28;20207;-68
2022/10/05 04:09:39;;;;;;;1.13;0.80;;;7.80;99.90;;;;;;4963141;28;20057;-69
2022/10/05 04:12:29;;;;;;;2.28;0.68;;;7.80;99.90;;;;;;4964671;28;20603;-69
2022/10/05 04:15:07;;;;;;;2.38;0.80;;;7.80;99.90;;;;;;4956072;28;20947;-69
2022/10/05 04:17:41;;;;;;;4.90;0.70;;;7.80;99.90;;;;;;4964614;28;20805;-69
2022/10/05 04:20:43;;;;;;;0.90;0.75;;;7.80;99.90;;;;;;4962165;28;20042;-69
2022/10/05 04:23:39;;;;;;;0.73;0.73;;;7.80;99.90;;;;;;4942970;28;20574;-68
2022/10/05 04:26:13;;;;;;;2.38;0.70;;;7.80;99.90;;;;;;4981614;28;20080;-70
2022/10/05 04:28:40;;;;;;;2.22;0.90;;;7.80;99.90;;;;;;4964659;28;20065;-69
2022/10/05 04:31:14;;;;;;;3.08;0.77;;;7.80;99.90;;;;;;4961649;28;20042;-70
2022/10/05 04:33:46;;;;;;;2.70;0.70;;;7.80;99.90;;;;;;4954874;28;20065;-70
2022/10/05 04:36:25;;;;;;;8.93;0.80;;;7.80;99.90;;;;;;4966517;28;20045;-70
2022/10/05 04:39:04;;;;;;;1.25;0.90;;;7.80;99.90;;;;;;4965702;28;20045;-70
2022/10/05 04:41:43;;;;;;;1.55;0.70;;;7.80;99.90;;;;;;4964150;28;20206;-69
2022/10/05 04:44:41;;;;;;;1.27;0.90;;;7.80;99.90;;;;;;4955300;28;20270;-70
2022/10/05 04:47:30;;;;;;;1.30;0.80;;;7.70;99.90;;;;;;4964381;28;20040;-70
2022/10/05 04:50:09;;;;;;;1.23;1.05;;;7.70;99.90;;;;;;4979051;28;20210;-69
2022/10/05 04:53:09;;;;;;;1.60;1.23;;;7.70;99.90;;;;;;4978082;28;20276;-69
2022/10/05 04:56:03;;;;;;;3.25;1.05;;;7.70;99.90;;;;;;4939508;28;20490;-69
2022/10/05 04:59:05;;;;;;;5.85;1.15;;;7.70;99.90;;;;;;4955927;28;20307;-69
2022/10/05 05:01:59;;;;;;;4.43;1.35;;;7.60;99.90;;;;;;4965605;28;20045;-69
2022/10/05 05:04:51;;;;;;;6.25;1.02;;;7.60;99.90;;;;;;4967221;28;20227;-69
2022/10/05 05:07:31;;;;;;;2.40;1.00;;;7.60;99.90;;;;;;4959844;28;20052;-70
2022/10/05 05:10:14;;;;;;;1.40;0.80;;;7.60;99.90;;;;;;4963756;28;20045;-70
2022/10/05 05:13:14;;;;;;;3.53;0.80;;;7.60;99.90;;;;;;4955517;28;20588;-70
2022/10/05 05:16:03;;;;;;;1.38;0.90;;;7.60;99.90;;;;;;4964811;28;20416;-69
2022/10/05 05:18:41;;;;;;;2.55;0.90;;;7.60;99.90;;;;;;4966955;28;20049;-70
2022/10/05 05:21:50;;;;;;;9.60;1.30;;;7.60;99.90;;;;;;4964396;28;20592;-70
2022/10/05 05:24:59;;;;;;;3.83;1.42;;;7.70;99.90;;;;;;4958575;28;20069;-69
2022/10/05 05:27:45;;;;;;;2.70;1.15;;;7.60;99.90;;;;;;4964457;28;20038;-69
2022/10/05 05:30:51;;;;;;;0.95;0.80;;;7.70;99.90;;;;;;4965549;28;20211;-69
2022/10/05 05:33:27;;;;;;;1.10;0.68;;;7.60;99.90;;;;;;4916860;28;20043;-70
2022/10/05 05:36:11;;;;;;;3.90;0.90;;;7.70;99.90;;;;;;4967842;28;20366;-70
2022/10/05 05:38:51;;;;;;;1.30;0.90;;;7.60;99.90;;;;;;4963488;28;20060;-70
2022/10/05 05:41:41;;;;;;;4.55;0.80;;;7.60;99.90;;;;;;4953631;28;20759;-69
2022/10/05 05:44:26;;;;;;;3.80;1.00;;;7.70;99.90;;;;;;4955823;28;20110;-70
2022/10/05 05:47:00;;;;;;;4.65;1.13;;;7.80;99.90;;;;;;4969405;28;20056;-70
2022/10/05 05:49:50;;;;;;;4.07;1.20;;;7.80;99.90;;;;;;4970516;28;20386;-69
2022/10/05 05:52:30;;;;;;;1.10;0.90;;;7.90;99.90;;;;;;4961544;28;20046;-68
2022/10/05 05:55:05;;;;;;;1.83;1.10;;;7.90;99.90;;;;;;4972603;28;20164;-69
2022/10/05 05:57:43;;;;;;;2.05;0.90;;;7.90;99.90;;;;;;4958615;28;20057;-69
2022/10/05 06:00:13;;;;;;;0.85;0.85;;;8.00;99.90;;;;;;4966548;28;20076;-70
2022/10/05 06:03:08;;;;;;;1.10;1.00;;;8.10;99.90;;;;;;4962411;28;20075;-56
2022/10/05 06:05:48;;;;;;;1.65;0.88;;;8.10;99.90;;;;;;4951962;28;20914;-54
2022/10/05 06:08:25;;;;;;;2.47;1.30;;;8.20;99.90;;;;;;4960055;28;20049;-56
2022/10/05 06:11:03;;;;;;;3.10;1.02;;;8.40;99.90;;;;;;4956751;28;20570;-54
2022/10/05 06:13:34;;;;;;;1.63;1.00;;;8.70;99.90;;;;;;4965246;28;20207;-56
2022/10/05 06:16:24;;;;;;;3.00;1.25;;;9.00;99.90;;;;;;4966940;28;20109;-54
2022/10/05 06:18:56;;;;;;;2.08;1.23;;;9.30;99.90;;;;;;4964098;28;20429;-55
2022/10/05 06:21:37;;;;;;;2.00;1.25;;;9.70;99.90;;;;;;4963950;28;20144;-55
2022/10/05 06:24:28;;;;;;;4.07;0.98;;;10.10;99.90;;;;;;4961943;28;20230;-57
2022/10/05 06:27:33;;;;;;;1.45;0.80;;;10.50;99.90;;;;;;4969002;28;20349;-55
2022/10/05 06:30:38;;;;;;;1.00;0.90;;;10.90;99.90;;;;;;4955739;28;20231;-56
2022/10/05 06:33:44;;;;;;;1.75;1.20;;;11.40;99.90;;;;;;4947972;28;20248;-61
2022/10/05 06:36:21;;;;;;;3.17;1.38;;;11.80;99.90;;;;;;4953110;28;20041;-59
2022/10/05 06:39:07;;;;;;;2.97;1.65;;;12.20;99.90;;;;;;4954183;28;20052;-57
2022/10/05 06:41:54;;;;;;;3.70;0.88;;;12.50;99.90;;;;;;4962608;28;20417;-56
2022/10/05 06:44:56;;;;;;;1.80;1.23;;;12.70;99.90;;;;;;4957504;28;20057;-57
2022/10/05 06:48:05;;;;;;;1.67;1.10;;;13.00;99.90;;;;;;4963123;28;20070;-55
2022/10/05 06:51:19;;;;;;;3.58;1.10;;;13.40;99.90;;;;;;4951723;28;20088;-57
2022/10/05 06:54:22;;;;;;;5.57;1.13;;;13.80;99.90;;;;;;4963393;28;20615;-58
2022/10/05 06:56:53;;;;;;;2.47;1.30;;;14.10;99.90;;;;;;4974172;28;20045;-56
2022/10/05 06:59:26;;;;;;;4.32;1.00;;;14.30;99.90;;;;;;4953886;28;20167;-54
2022/10/05 07:02:22;;;;;;;2.10;1.23;;;14.50;99.90;;;;;;4958902;28;20045;-54
2022/10/05 07:05:27;;;;;;;3.92;1.00;;;14.60;99.90;;;;;;4977946;28;20053;-54
2022/10/05 07:07:59;;;;;;;4.78;1.33;;;14.90;99.90;;;;;;4959746;28;20042;-54
2022/10/05 07:10:31;;;;;;;3.22;1.05;;;15.30;99.90;;;;;;4965356;28;20038;-54
2022/10/05 07:13:23;;;;;;;4.63;1.10;;;15.50;99.90;;;;;;4974811;28;20344;-55
2022/10/05 07:15:57;;;;;;;3.83;0.90;;;15.90;99.90;;;;;;4971796;28;20041;-53
2022/10/05 07:18:52;;;;;;;1.02;0.75;;;16.40;99.90;;;;;;4961059;28;20954;-53
2022/10/05 07:21:26;;;;;;;0.93;0.90;;;16.70;99.90;;;;;;4963780;28;20053;-56
2022/10/05 07:24:01;;;;;;;2.38;0.90;;;17.10;99.90;;;;;;4963242;28;20038;-54
2022/10/05 07:26:47;;;;;;;2.40;0.93;;;17.40;98.50;;;;;;4954924;28;20194;-56
2022/10/05 07:29:33;;;;;;;1.48;1.20;;;17.70;91.80;;;;;;4969868;28;20988;-55
2022/10/05 07:32:08;;;;;;;6.20;1.40;;;18.10;88.00;;;;;;4972498;28;20216;-60
2022/10/05 07:34:46;;;;;;;2.92;0.85;;;18.30;80.40;;;;;;4956825;28;20050;-56
2022/10/05 07:37:53;;;;;;;1.42;0.60;;;18.50;68.10;;;;;;4968429;28;20041;-57
2022/10/05 07:40:40;;;;;;;2.20;1.70;;;18.70;70.30;;;;;;4963602;28;20641;-62
2022/10/05 07:43:29;;;;;;;1.85;1.10;;;19.00;75.30;;;;;;4966163;28;20041;-57
2022/10/05 07:46:43;;;;;;;1.40;1.20;;;19.30;70.10;;;;;;4980783;28;20202;-57
2022/10/05 07:49:32;;;;;;;8.50;1.13;;;19.60;68.10;;;;;;4967601;28;20052;-55
2022/10/05 07:52:05;;;;;;;3.20;0.60;;;19.90;64.30;;;;;;4963958;28;20068;-54
2022/10/05 07:54:51;;;;;;;1.48;0.95;;;20.10;64.20;;;;;;4963411;28;20053;-55
2022/10/05 07:57:50;;;;;;;6.88;0.75;;;20.30;63.20;;;;;;4961025;28;20198;-56
2022/10/05 08:00:23;;;;;;;4.55;0.93;;;20.50;63.20;;;;;;4953606;28;20595;-57
2022/10/05 08:02:59;;;;;;;1.40;1.05;;;20.60;59.40;;;;;;4972028;28;20045;-57
2022/10/05 08:05:32;;;;;;;3.38;0.70;;;20.80;60.40;;;;;;4967091;28;20059;-57
2022/10/05 08:08:05;;;;;;;3.88;0.80;;;21.00;60.60;;;;;;4964905;28;20033;-58
2022/10/05 08:10:58;;;;;;;3.22;0.75;;;21.20;58.70;;;;;;4962446;28;20848;-57
2022/10/05 08:14:12;;;;;;;2.58;1.02;;;21.30;58.50;;;;;;4962727;28;20037;-56
2022/10/05 08:16:40;;;;;;;1.42;0.98;;;21.50;58.00;;;;;;4965626;28;20765;-56
2022/10/05 08:19:25;;;;;;;2.90;1.15;;;21.60;58.00;;;;;;4963102;28;20136;-55
2022/10/05 08:21:59;;;;;;;1.55;1.00;;;21.80;58.20;;;;;;4963147;28;20215;-57
2022/10/05 08:24:29;;;;;;;1.40;0.80;;;22.00;57.50;;;;;;4959946;28;20619;-55
2022/10/05 08:27:02;;;;;;;4.40;1.10;;;22.10;57.90;;;;;;4966976;28;20114;-54
2022/10/05 08:29:57;;;;;;;6.53;0.77;;;22.20;58.70;;;;;;4961179;28;20279;-54
2022/10/05 08:32:40;;;;;;;2.53;1.10;;;22.30;58.10;;;;;;4968563;28;20131;-55
2022/10/05 08:35:32;;;;;;;8.38;1.02;;;22.50;56.40;;;;;;4961224;28;20040;-56
2022/10/05 08:38:04;;;;;;;1.20;0.93;;;22.60;55.40;;;;;;4961607;28;20622;-56
2022/10/05 08:41:15;;;;;;;1.17;0.80;;;22.80;54.30;;;;;;4958616;28;20460;-55
2022/10/05 08:43:57;;;;;;;1.30;1.00;;;23.00;55.00;;;;;;4948388;28;20276;-56
2022/10/05 08:47:01;;;;;;;4.47;0.70;;;23.10;56.50;;;;;;4965459;28;20336;-56
2022/10/05 08:50:01;;;;;;;3.58;0.90;;;23.30;54.50;;;;;;4952688;28;20056;-55
2022/10/05 08:53:04;;;;;;;4.65;0.90;;;23.50;53.80;;;;;;4975415;28;20360;-57
2022/10/05 08:56:08;;;;;;;3.50;1.25;;;23.70;53.10;;;;;;4962776;28;20527;-55
2022/10/05 08:58:47;;;;;;;2.17;0.80;;;23.90;52.50;;;;;;4945416;28;20056;-56
2022/10/05 09:01:17;;;;;;;3.42;1.30;;;24.10;53.40;;;;;;4959412;28;20067;-56
2022/10/05 09:03:53;;;;;;;8.27;2.38;;;24.20;50.70;;;;;;4963439;28;20064;-56
2022/10/05 09:06:33;;;;;;;5.95;2.13;;;24.20;50.60;;;;;;4965265;28;20041;-56
2022/10/05 09:09:20;;;;;;;7.43;1.80;;;24.30;51.70;;;;;;4964075;28;20143;-57
2022/10/05 09:12:36;;;;;;;5.47;1.80;;;24.50;51.30;;;;;;4957640;28;20044;-57
2022/10/05 09:15:15;;;;;;;37.15;11.43;;;24.70;48.90;;;;;;4957093;28;20134;-57
2022/10/05 09:18:32;;;;;;;56.08;17.75;;;24.80;48.10;;;;;;4964170;28;20583;-56
2022/10/05 09:21:19;;;;;;;67.80;25.10;;;24.90;48.90;;;;;;4963640;28;20123;-54
2022/10/05 09:23:59;;;;;;;3.17;1.23;;;24.90;52.00;;;;;;4959698;28;20053;-56
2022/10/05 09:26:58;;;;;;;6.53;1.27;;;24.90;50.60;;;;;;4963035;28;20049;-55
2022/10/05 09:29:26;;;;;;;9.18;1.15;;;25.00;49.80;;;;;;4965548;28;20377;-54
2022/10/05 09:32:20;;;;;;;5.80;1.70;;;25.20;50.80;;;;;;4964388;28;20197;-55
2022/10/05 09:34:54;;;;;;;1.95;1.35;;;25.40;49.10;;;;;;4965818;28;20438;-56
2022/10/05 09:38:07;;;;;;;2.88;1.40;;;25.50;48.10;;;;;;4961592;28;20049;-55
2022/10/05 09:41:11;;;;;;;12.00;2.22;;;25.60;50.80;;;;;;4959301;28;20037;-54
2022/10/05 09:44:02;;;;;;;4.25;1.50;;;25.60;50.10;;;;;;4959647;28;20049;-55
2022/10/05 09:46:54;;;;;;;4.57;1.17;;;25.60;48.90;;;;;;4957659;28;20476;-54
2022/10/05 09:49:52;;;;;;;2.88;1.38;;;25.80;45.60;;;;;;4943185;28;20079;-57
2022/10/05 09:52:21;;;;;;;;;;;25.80;44.70;;;;;;4959837;28;20033;-54
2022/10/05 09:55:24;;;;;;;1.77;1.10;;;26.00;43.90;;;;;;4958783;28;20085;-56
2022/10/05 09:58:29;;;;;;;1.92;1.05;;;26.10;45.00;;;;;;4966117;28;20533;-53
2022/10/05 10:01:12;;;;;;;4.70;0.93;;;26.20;45.80;;;;;;4961710;28;20499;-54
2022/10/05 10:04:23;;;;;;;6.00;1.02;;;26.40;45.60;;;;;;4961559;28;20045;-55
2022/10/05 10:07:09;;;;;;;1.45;1.15;;;26.60;44.20;;;;;;4963757;28;20400;-54
2022/10/05 10:09:55;;;;;;;1.83;0.90;;;26.60;43.10;;;;;;4952674;28;20194;-54
2022/10/05 10:12:33;;;;;;;1.20;1.10;;;26.80;44.60;;;;;;4958318;28;20358;-52
2022/10/05 10:15:27;;;;;;;5.20;1.15;;;26.90;42.80;;;;;;4960611;28;20338;-53
2022/10/05 10:18:16;;;;;;;1.83;1.45;;;26.90;44.70;;;;;;4953950;28;20424;-54
2022/10/05 10:20:48;;;;;;;5.32;1.42;;;27.00;46.50;;;;;;4960872;28;20376;-56
2022/10/05 10:23:36;;;;;;;3.22;1.30;;;27.10;48.00;;;;;;4961450;28;20156;-58
2022/10/05 10:26:30;;;;;;;;;;;27.20;47.50;;;;;;4959822;28;20038;-57
2022/10/05 10:29:30;;;;;;;5.20;1.17;;;27.20;48.70;;;;;;4963424;28;19928;-57
2022/10/05 10:32:09;;;;;;;3.97;1.23;;;27.20;46.90;;;;;;4960010;28;20044;-56
2022/10/05 10:35:03;;;;;;;1.42;1.15;;;27.10;47.60;;;;;;4951278;28;20985;-55
2022/10/05 10:37:44;;;;;;;2.17;1.20;;;27.20;48.40;;;;;;4963596;28;20299;-58
2022/10/05 10:40:25;;;;;;;2.70;1.83;;;27.40;47.90;;;;;;4963939;28;20494;-56
2022/10/05 10:42:52;;;;;;;2.42;1.20;;;27.50;46.10;;;;;;4963202;28;20195;-57
2022/10/05 10:45:41;;;;;;;1.73;1.35;;;27.60;47.60;;;;;;4963160;28;20427;-55
2022/10/05 10:48:50;;;;;;;5.97;1.63;;;27.80;47.00;;;;;;4965263;28;20149;-56
2022/10/05 10:51:29;;;;;;;3.40;1.85;;;27.90;47.10;;;;;;4964532;28;20041;-57
2022/10/05 10:54:02;;;;;;;1.52;1.40;;;28.00;46.30;;;;;;4966399;28;20413;-57
2022/10/05 10:56:54;;;;;;;3.42;1.90;;;28.10;46.90;;;;;;4963350;28;20294;-57
2022/10/05 10:59:30;;;;;;;3.20;1.73;;;28.00;47.70;;;;;;4967197;28;20241;-58
2022/10/05 11:02:28;;;;;;;4.72;1.20;;;28.00;46.90;;;;;;4982418;28;20222;-57
2022/10/05 11:05:22;;;;;;;2.10;1.85;;;28.10;46.20;;;;;;4962932;28;20776;-57
2022/10/05 11:08:02;;;;;;;2.85;1.75;;;28.20;47.00;;;;;;4962522;28;20844;-57
2022/10/05 11:10:54;;;;;;;1.35;1.23;;;28.30;46.70;;;;;;4965628;28;20291;-56
2022/10/05 11:13:40;;;;;;;7.13;1.25;;;28.40;44.60;;;;;;4966590;28;20561;-54
2022/10/05 11:16:48;;;;;;;1.25;1.08;;;28.50;41.90;;;;;;4969111;28;20084;-54
2022/10/05 11:19:46;;;;;;;1.58;1.10;;;28.50;42.40;;;;;;4958900;28;20310;-53
2022/10/05 11:22:43;;;;;;;1.77;1.10;;;28.40;44.00;;;;;;4965502;28;20299;-53
2022/10/05 11:25:47;;;;;;;1.48;1.38;;;28.40;44.80;;;;;;4966540;28;20419;-58
2022/10/05 11:28:39;;;;;;;0.80;0.80;;;28.40;44.10;;;;;;4965296;28;20822;-57
2022/10/05 11:31:37;;;;;;;2.55;0.93;;;28.40;42.50;;;;;;4969756;28;20532;-58
2022/10/05 11:34:23;;;;;;;1.15;0.93;;;28.30;43.20;;;;;;4966294;28;20213;-58
2022/10/05 11:37:09;;;;;;;1.27;0.70;;;28.20;43.90;;;;;;4961318;28;20041;-59
2022/10/05 11:39:43;;;;;;;1.70;0.98;;;28.10;42.30;;;;;;4959231;28;20467;-58
2022/10/05 11:42:44;;;;;;;1.73;1.30;;;28.00;43.60;;;;;;4959747;28;20559;-58
2022/10/05 11:45:55;;;;;;;1.95;1.20;;;27.70;44.50;;;;;;4963956;28;20231;-58
2022/10/05 11:48:37;;;;;;;2.33;1.17;;;27.50;44.20;;;;;;4961236;28;20394;-58
2022/10/05 11:51:10;;;;;;;0.93;0.85;;;27.40;45.60;;;;;;4961153;28;20729;-58
2022/10/05 11:53:48;;;;;;;1.10;1.00;;;27.40;47.20;;;;;;4961779;28;20522;-60
2022/10/05 11:56:15;;;;;;;1.55;1.02;;;27.60;46.60;;;;;;4960579;28;20295;-59
2022/10/05 11:58:52;;;;;;;3.22;1.23;;;27.80;43.90;;;;;;4964092;28;20491;-58
2022/10/05 12:01:54;;;;;;;4.30;1.15;;;27.80;44.80;;;;;;4962963;28;20337;-58
2022/10/05 12:04:40;;;;;;;0.93;0.93;;;27.70;45.40;;;;;;4959337;28;20288;-59
2022/10/05 12:07:25;;;;;;;1.08;0.98;;;27.70;46.20;;;;;;4962695;28;20559;-59
2022/10/05 12:10:21;;;;;;;5.40;1.10;;;27.80;46.80;;;;;;4963901;28;20037;-58
2022/10/05 12:13:18;;;;;;;3.60;0.88;;;27.90;47.60;;;;;;4965975;28;20266;-59
2022/10/05 12:16:13;;;;;;;2.67;0.90;;;27.90;46.60;;;;;;4968213;28;20498;-57
2022/10/05 12:19:13;;;;;;;1.63;1.02;;;28.10;46.60;;;;;;4960697;28;20241;-58
2022/10/05 12:21:51;;;;;;;1.90;0.90;;;28.10;45.10;;;;;;4947470;28;20218;-58
2022/10/05 12:24:41;;;;;;;1.23;0.70;;;28.00;45.40;;;;;;4953927;28;20356;-58
2022/10/05 12:27:17;;;;;;;2.05;0.90;;;28.00;44.80;;;;;;4962230;28;20328;-58
2022/10/05 12:30:04;;;;;;;0.65;0.65;;;27.90;43.30;;;;;;4958230;28;20340;-58
2022/10/05 12:32:40;;;;;;;0.60;0.60;;;28.00;44.20;;;;;;4982430;28;20490;-57
2022/10/05 12:35:21;;;;;;;1.93;0.80;;;28.00;43.40;;;;;;4964711;28;20774;-59
2022/10/05 12:38:33;;;;;;;4.68;0.80;;;28.00;42.20;;;;;;4961419;28;20255;-59
2022/10/05 12:41:21;;;;;;;3.33;0.70;;;27.90;42.70;;;;;;4965903;28;20309;-59
2022/10/05 12:43:52;;;;;;;1.98;0.88;;;27.80;43.00;;;;;;4954161;28;20480;-55
2022/10/05 12:46:52;;;;;;;0.85;0.68;;;27.70;42.60;;;;;;4967048;28;20486;-57
2022/10/05 12:49:28;;;;;;;0.68;0.68;;;27.60;41.00;;;;;;4961639;28;20042;-55
2022/10/05 12:52:01;;;;;;;2.53;0.53;;;27.60;41.40;;;;;;4964198;28;20944;-53
2022/10/05 12:54:58;;;;;;;3.03;0.80;;;27.50;42.20;;;;;;4960136;28;20218;-56
2022/10/05 12:57:43;;;;;;;2.47;1.00;;;27.60;41.10;;;;;;4960343;28;20543;-56
2022/10/05 13:00:14;;;;;;;1.45;0.63;;;27.70;43.10;;;;;;4963394;28;20064;-56
2022/10/05 13:02:53;;;;;;;1.10;0.80;;;27.80;42.20;;;;;;4962081;28;20553;-56
2022/10/05 13:05:47;;;;;;;1.20;0.60;;;27.80;42.40;;;;;;4961522;28;20894;-56
2022/10/05 13:08:42;;;;;;;2.05;0.82;;;27.80;41.10;;;;;;4960791;28;20649;-54
2022/10/05 13:11:22;;;;;;;3.38;0.70;;;27.90;42.10;;;;;;4961377;28;21007;-54
2022/10/05 13:14:09;;;;;;;1.90;1.20;;;28.00;42.30;;;;;;4958547;28;20034;-54
2022/10/05 13:16:58;;;;;;;4.82;0.95;;;28.10;39.70;;;;;;4959215;28;20685;-55
2022/10/05 13:19:28;;;;;;;1.65;0.90;;;28.10;38.90;;;;;;4958128;28;20056;-56
2022/10/05 13:22:14;;;;;;;0.52;0.47;;;28.10;40.50;;;;;;4960024;28;20620;-54
2022/10/05 13:24:53;;;;;;;3.15;0.82;;;28.00;38.90;;;;;;4958917;28;20201;-56
2022/10/05 13:27:29;;;;;;;0.95;0.60;;;27.90;40.10;;;;;;4961717;28;20308;-56
2022/10/05 13:30:07;;;;;;;2.05;0.70;;;27.90;40.30;;;;;;4958358;28;20033;-54
2022/10/05 13:32:58;;;;;;;1.65;0.52;;;27.80;39.10;;;;;;4974060;28;20111;-55
2022/10/05 13:35:56;;;;;;;1.95;0.85;;;27.70;40.40;;;;;;4959243;28;20825;-57
2022/10/05 13:38:37;;;;;;;1.13;0.98;;;27.70;39.20;;;;;;4954171;28;20237;-58
2022/10/05 13:41:20;;;;;;;1.42;0.80;;;27.70;41.50;;;;;;4960556;28;20495;-57
2022/10/05 13:44:24;;;;;;;1.63;0.80;;;27.80;40.60;;;;;;4964759;28;20080;-54
2022/10/05 13:47:00;;;;;;;3.38;0.65;;;27.80;40.70;;;;;;4960864;28;20300;-56
2022/10/05 13:49:47;;;;;;;3.17;0.70;;;27.80;40.40;;;;;;4961091;28;20152;-56
2022/10/05 13:52:36;;;;;;;7.67;1.13;;;27.80;41.10;;;;;;4959111;28;20396;-56
2022/10/05 13:55:35;;;;;;;6.47;0.90;;;27.80;40.90;;;;;;4963217;28;20122;-56
2022/10/05 13:58:26;;;;;;;3.13;0.70;;;27.90;43.30;;;;;;4957407;28;20956;-60
2022/10/05 14:00:58;;;;;;;3.72;1.05;;;27.80;41.40;;;;;;4958270;28;20809;-53
2022/10/05 14:03:33;;;;;;;1.17;0.88;;;27.80;41.00;;;;;;4974467;28;20368;-53
2022/10/05 14:06:12;;;;;;;2.65;0.70;;;27.80;43.40;;;;;;4956744;28;20419;-53
2022/10/05 14:08:52;;;;;;;2.30;0.90;;;27.80;43.40;;;;;;4963348;28;20606;-51
2022/10/05 14:11:46;;;;;;;1.40;0.80;;;27.90;44.80;;;;;;4957977;28;20383;-57
2022/10/05 14:14:22;;;;;;;2.85;1.00;;;27.90;42.90;;;;;;4959956;28;20236;-56
2022/10/05 14:16:52;;;;;;;3.53;0.85;;;28.00;42.20;;;;;;4963947;28;20352;-54
2022/10/05 14:19:29;;;;;;;2.38;0.60;;;28.00;43.00;;;;;;4964767;28;20464;-56
2022/10/05 14:22:02;;;;;;;0.98;0.70;;;27.90;43.20;;;;;;4964087;28;20052;-55
2022/10/05 14:24:33;;;;;;;2.17;0.65;;;27.90;43.60;;;;;;4963196;28;20049;-54
2022/10/05 14:27:34;;;;;;;5.18;0.82;;;27.90;44.80;;;;;;4974465;28;20247;-55
2022/10/05 14:30:07;;;;;;;0.60;0.60;;;27.90;45.60;;;;;;4968710;28;20198;-59